sensor_id;sensor_type;location;lat;lon;timestamp;pressure;altitude;pressure_sealevel;temperature;humidity
60646;BME280;46462;32.608;-117.032;2023-03-04T00:01:02;99234.93;;;19.56;37.28
60646;BME280;46462;32.608;-117.032;2023-03-04T00:03:33;99235.70;;;19.71;37.16
60646;BME280;46462;32.608;-117.032;2023-03-04T00:06:04;99241.33;;;19.56;37.75
60646;BME280;46462;32.608;-117.032;2023-03-04T00:08:34;99245.48;;;19.45;38.10
60646;BME280;46462;32.608;-117.032;2023-03-04T00:11:05;99243.87;;;19.99;37.74
60646;BME280;46462;32.608;-117.032;2023-03-04T00:13:36;99248.98;;;21.58;34.47
60646;BME280;46462;32.608;-117.032;2023-03-04T00:16:07;99253.45;;;21.48;33.46
60646;BME280;46462;32.608;-117.032;2023-03-04T00:18:38;99257.05;;;21.11;33.87
60646;BME280;46462;32.608;-117.032;2023-03-04T00:21:08;99256.48;;;20.98;33.78
60646;BME280;46462;32.608;-117.032;2023-03-04T00:23:39;99259.74;;;20.46;35.23
60646;BME280;46462;32.608;-117.032;2023-03-04T00:26:10;99265.59;;;20.34;35.27
60646;BME280;46462;32.608;-117.032;2023-03-04T00:28:41;99266.49;;;20.10;35.88
60646;BME280;46462;32.608;-117.032;2023-03-04T00:31:12;99265.31;;;19.79;36.72
60646;BME280;46462;32.608;-117.032;2023-03-04T00:33:42;99251.76;;;21.64;33.46
60646;BME280;46462;32.608;-117.032;2023-03-04T00:36:13;99259.15;;;22.74;31.62
60646;BME280;46462;32.608;-117.032;2023-03-04T00:38:44;99260.96;;;23.38;30.45
60646;BME280;46462;32.608;-117.032;2023-03-04T00:41:15;99260.41;;;23.70;29.97
60646;BME280;46462;32.608;-117.032;2023-03-04T00:43:46;99256.17;;;23.79;29.90
60646;BME280;46462;32.608;-117.032;2023-03-04T00:46:16;99256.66;;;23.89;29.95
60646;BME280;46462;32.608;-117.032;2023-03-04T00:48:47;99261.99;;;24.00;29.83
60646;BME280;46462;32.608;-117.032;2023-03-04T00:51:18;99269.36;;;24.03;29.91
60646;BME280;46462;32.608;-117.032;2023-03-04T00:53:49;99268.13;;;23.94;30.19
60646;BME280;46462;32.608;-117.032;2023-03-04T00:56:20;99268.33;;;23.88;30.34
60646;BME280;46462;32.608;-117.032;2023-03-04T00:58:50;99266.54;;;23.92;30.43
60646;BME280;46462;32.608;-117.032;2023-03-04T01:01:21;99268.49;;;23.98;30.30
60646;BME280;46462;32.608;-117.032;2023-03-04T01:03:52;99268.52;;;24.00;30.41
60646;BME280;46462;32.608;-117.032;2023-03-04T01:06:23;99273.86;;;23.93;30.54
60646;BME280;46462;32.608;-117.032;2023-03-04T01:08:53;99275.54;;;23.98;30.56
60646;BME280;46462;32.608;-117.032;2023-03-04T01:11:24;99274.42;;;23.96;30.69
60646;BME280;46462;32.608;-117.032;2023-03-04T01:13:55;99275.51;;;23.99;30.63
60646;BME280;46462;32.608;-117.032;2023-03-04T01:16:26;99275.92;;;24.06;30.60
60646;BME280;46462;32.608;-117.032;2023-03-04T01:18:56;99279.15;;;24.13;30.57
60646;BME280;46462;32.608;-117.032;2023-03-04T01:21:27;99282.49;;;24.20;30.51
60646;BME280;46462;32.608;-117.032;2023-03-04T01:23:58;99284.09;;;24.25;30.52
60646;BME280;46462;32.608;-117.032;2023-03-04T01:26:29;99288.90;;;24.25;30.61
60646;BME280;46462;32.608;-117.032;2023-03-04T01:29:00;99293.81;;;24.33;30.53
60646;BME280;46462;32.608;-117.032;2023-03-04T01:31:30;99292.16;;;24.37;30.51
60646;BME280;46462;32.608;-117.032;2023-03-04T01:34:01;99291.81;;;24.42;30.51
60646;BME280;46462;32.608;-117.032;2023-03-04T01:36:32;99286.79;;;24.46;30.45
60646;BME280;46462;32.608;-117.032;2023-03-04T01:39:03;99283.48;;;24.43;30.52
60646;BME280;46462;32.608;-117.032;2023-03-04T01:41:34;99283.52;;;24.46;30.41
60646;BME280;46462;32.608;-117.032;2023-03-04T01:44:05;99280.64;;;24.45;30.50
60646;BME280;46462;32.608;-117.032;2023-03-04T01:46:35;99277.82;;;24.46;30.47
60646;BME280;46462;32.608;-117.032;2023-03-04T01:49:08;99276.49;;;24.40;30.56
60646;BME280;46462;32.608;-117.032;2023-03-04T01:51:36;99278.80;;;24.35;30.64
60646;BME280;46462;32.608;-117.032;2023-03-04T01:54:08;99280.13;;;24.35;30.69
60646;BME280;46462;32.608;-117.032;2023-03-04T01:56:39;99280.98;;;24.35;30.70
60646;BME280;46462;32.608;-117.032;2023-03-04T01:59:11;99281.28;;;24.33;30.74
60646;BME280;46462;32.608;-117.032;2023-03-04T02:01:41;99284.91;;;24.32;30.75
60646;BME280;46462;32.608;-117.032;2023-03-04T02:04:11;99287.74;;;24.31;30.74
60646;BME280;46462;32.608;-117.032;2023-03-04T02:06:41;99293.64;;;24.30;30.75
60646;BME280;46462;32.608;-117.032;2023-03-04T02:09:12;99295.18;;;24.30;30.81
60646;BME280;46462;32.608;-117.032;2023-03-04T02:11:44;99295.86;;;24.27;30.74
60646;BME280;46462;32.608;-117.032;2023-03-04T02:14:15;99293.19;;;24.25;30.95
60646;BME280;46462;32.608;-117.032;2023-03-04T02:16:44;99295.89;;;24.24;30.98
60646;BME280;46462;32.608;-117.032;2023-03-04T02:19:21;99295.85;;;24.24;30.89
60646;BME280;46462;32.608;-117.032;2023-03-04T02:21:45;99295.12;;;24.24;30.98
60646;BME280;46462;32.608;-117.032;2023-03-04T02:24:21;99296.82;;;24.21;30.89
60646;BME280;46462;32.608;-117.032;2023-03-04T02:26:46;99298.38;;;24.19;30.88
60646;BME280;46462;32.608;-117.032;2023-03-04T02:29:18;99300.77;;;24.18;30.87
60646;BME280;46462;32.608;-117.032;2023-03-04T02:31:49;99302.61;;;24.17;30.86
60646;BME280;46462;32.608;-117.032;2023-03-04T02:34:21;99304.52;;;24.14;30.90
60646;BME280;46462;32.608;-117.032;2023-03-04T02:36:51;99303.86;;;24.14;30.88
60646;BME280;46462;32.608;-117.032;2023-03-04T02:39:26;99301.63;;;24.09;31.01
60646;BME280;46462;32.608;-117.032;2023-03-04T02:41:52;99301.12;;;24.07;31.04
60646;BME280;46462;32.608;-117.032;2023-03-04T02:44:24;99302.27;;;24.06;31.11
60646;BME280;46462;32.608;-117.032;2023-03-04T02:46:53;99300.64;;;24.07;31.09
60646;BME280;46462;32.608;-117.032;2023-03-04T02:49:25;99297.10;;;24.05;31.15
60646;BME280;46462;32.608;-117.032;2023-03-04T02:52:00;99297.54;;;24.03;31.34
60646;BME280;46462;32.608;-117.032;2023-03-04T02:54:25;99298.63;;;24.02;31.33
60646;BME280;46462;32.608;-117.032;2023-03-04T02:56:58;99301.65;;;23.99;31.39
60646;BME280;46462;32.608;-117.032;2023-03-04T02:59:26;99302.10;;;23.94;31.51
60646;BME280;46462;32.608;-117.032;2023-03-04T03:01:57;99300.48;;;23.95;31.51
60646;BME280;46462;32.608;-117.032;2023-03-04T03:04:28;99295.98;;;23.93;31.52
60646;BME280;46462;32.608;-117.032;2023-03-04T03:06:59;99295.93;;;23.92;31.59
60646;BME280;46462;32.608;-117.032;2023-03-04T03:09:29;99293.73;;;23.87;31.86
60646;BME280;46462;32.608;-117.032;2023-03-04T03:12:00;99290.94;;;23.84;31.82
60646;BME280;46462;32.608;-117.032;2023-03-04T03:14:31;99292.10;;;23.83;31.84
60646;BME280;46462;32.608;-117.032;2023-03-04T03:17:02;99292.41;;;23.82;31.84
60646;BME280;46462;32.608;-117.032;2023-03-04T03:19:32;99294.84;;;23.76;32.00
60646;BME280;46462;32.608;-117.032;2023-03-04T03:22:03;99294.97;;;23.77;32.00
60646;BME280;46462;32.608;-117.032;2023-03-04T03:24:34;99297.29;;;23.71;32.05
60646;BME280;46462;32.608;-117.032;2023-03-04T03:27:05;99297.72;;;23.62;32.34
60646;BME280;46462;32.608;-117.032;2023-03-04T03:29:35;99298.66;;;23.64;32.35
60646;BME280;46462;32.608;-117.032;2023-03-04T03:32:07;99299.02;;;23.65;32.59
60646;BME280;46462;32.608;-117.032;2023-03-04T03:34:37;99294.92;;;23.62;32.46
60646;BME280;46462;32.608;-117.032;2023-03-04T03:37:08;99295.89;;;23.59;32.30
60646;BME280;46462;32.608;-117.032;2023-03-04T03:39:39;99294.76;;;23.52;32.50
60646;BME280;46462;32.608;-117.032;2023-03-04T03:42:10;99298.23;;;23.50;32.64
60646;BME280;46462;32.608;-117.032;2023-03-04T03:44:40;99301.59;;;23.42;32.78
60646;BME280;46462;32.608;-117.032;2023-03-04T03:47:11;99303.91;;;23.41;33.00
60646;BME280;46462;32.608;-117.032;2023-03-04T03:49:42;99303.58;;;23.44;32.99
60646;BME280;46462;32.608;-117.032;2023-03-04T03:52:13;99310.51;;;23.42;33.11
60646;BME280;46462;32.608;-117.032;2023-03-04T03:54:44;99315.77;;;23.36;33.34
60646;BME280;46462;32.608;-117.032;2023-03-04T03:57:14;99321.51;;;23.34;33.46
60646;BME280;46462;32.608;-117.032;2023-03-04T03:59:45;99322.99;;;23.32;33.43
60646;BME280;46462;32.608;-117.032;2023-03-04T04:02:16;99325.81;;;23.34;33.37
60646;BME280;46462;32.608;-117.032;2023-03-04T04:04:47;99327.14;;;23.29;33.55
60646;BME280;46462;32.608;-117.032;2023-03-04T04:07:18;99325.61;;;23.25;33.66
60646;BME280;46462;32.608;-117.032;2023-03-04T04:09:48;99327.76;;;23.15;33.86
60646;BME280;46462;32.608;-117.032;2023-03-04T04:12:20;99326.58;;;23.13;33.91
60646;BME280;46462;32.608;-117.032;2023-03-04T04:14:50;99322.46;;;23.10;33.97
60646;BME280;46462;32.608;-117.032;2023-03-04T04:17:21;99328.75;;;23.05;34.11
60646;BME280;46462;32.608;-117.032;2023-03-04T04:19:51;99332.78;;;22.99;34.26
60646;BME280;46462;32.608;-117.032;2023-03-04T04:22:22;99335.14;;;22.96;34.15
60646;BME280;46462;32.608;-117.032;2023-03-04T04:24:53;99338.13;;;22.94;34.13
60646;BME280;46462;32.608;-117.032;2023-03-04T04:27:24;99339.79;;;22.95;34.19
60646;BME280;46462;32.608;-117.032;2023-03-04T04:29:55;99341.08;;;22.91;34.18
60646;BME280;46462;32.608;-117.032;2023-03-04T04:32:26;99336.73;;;22.88;34.34
60646;BME280;46462;32.608;-117.032;2023-03-04T04:34:56;99337.84;;;22.83;34.41
60646;BME280;46462;32.608;-117.032;2023-03-04T04:37:27;99337.10;;;22.83;34.38
60646;BME280;46462;32.608;-117.032;2023-03-04T04:39:58;99337.87;;;22.81;34.33
60646;BME280;46462;32.608;-117.032;2023-03-04T04:42:29;99342.14;;;22.78;34.37
60646;BME280;46462;32.608;-117.032;2023-03-04T04:44:59;99338.75;;;22.70;34.48
60646;BME280;46462;32.608;-117.032;2023-03-04T04:47:30;99337.99;;;22.71;34.33
60646;BME280;46462;32.608;-117.032;2023-03-04T04:50:01;99340.91;;;22.69;34.50
60646;BME280;46462;32.608;-117.032;2023-03-04T04:52:32;99341.41;;;22.60;34.59
60646;BME280;46462;32.608;-117.032;2023-03-04T04:55:08;99344.33;;;22.61;34.68
60646;BME280;46462;32.608;-117.032;2023-03-04T04:57:37;99346.10;;;22.60;34.58
60646;BME280;46462;32.608;-117.032;2023-03-04T05:00:09;99350.46;;;22.45;34.92
60646;BME280;46462;32.608;-117.032;2023-03-04T05:02:39;99354.37;;;22.51;34.78
60646;BME280;46462;32.608;-117.032;2023-03-04T05:05:09;99356.86;;;22.49;34.82
60646;BME280;46462;32.608;-117.032;2023-03-04T05:07:39;99360.68;;;22.43;34.83
60646;BME280;46462;32.608;-117.032;2023-03-04T05:10:11;99360.54;;;22.32;35.00
60646;BME280;46462;32.608;-117.032;2023-03-04T05:12:43;99356.86;;;22.34;34.84
60646;BME280;46462;32.608;-117.032;2023-03-04T05:15:12;99356.95;;;22.27;35.06
60646;BME280;46462;32.608;-117.032;2023-03-04T05:17:43;99355.55;;;22.33;34.85
60646;BME280;46462;32.608;-117.032;2023-03-04T05:20:14;99362.04;;;22.27;34.91
60646;BME280;46462;32.608;-117.032;2023-03-04T05:22:44;99357.75;;;22.23;35.11
60646;BME280;46462;32.608;-117.032;2023-03-04T05:25:15;99354.32;;;22.15;35.13
60646;BME280;46462;32.608;-117.032;2023-03-04T05:27:46;99357.79;;;22.12;35.10
60646;BME280;46462;32.608;-117.032;2023-03-04T05:30:17;99356.92;;;22.09;35.15
60646;BME280;46462;32.608;-117.032;2023-03-04T05:32:48;99357.64;;;22.06;35.19
60646;BME280;46462;32.608;-117.032;2023-03-04T05:35:18;99358.07;;;22.06;35.14
60646;BME280;46462;32.608;-117.032;2023-03-04T05:37:49;99356.66;;;22.13;35.12
60646;BME280;46462;32.608;-117.032;2023-03-04T05:40:20;99356.30;;;22.12;35.14
60646;BME280;46462;32.608;-117.032;2023-03-04T05:42:51;99357.11;;;22.16;34.91
60646;BME280;46462;32.608;-117.032;2023-03-04T05:45:22;99356.68;;;22.17;35.05
60646;BME280;46462;32.608;-117.032;2023-03-04T05:47:53;99350.08;;;22.11;35.07
60646;BME280;46462;32.608;-117.032;2023-03-04T05:50:24;99347.28;;;22.03;34.99
60646;BME280;46462;32.608;-117.032;2023-03-04T05:52:54;99342.96;;;22.04;35.11
60646;BME280;46462;32.608;-117.032;2023-03-04T05:55:26;99339.54;;;22.06;35.06
60646;BME280;46462;32.608;-117.032;2023-03-04T05:57:56;99337.86;;;22.03;35.14
60646;BME280;46462;32.608;-117.032;2023-03-04T06:00:27;99334.84;;;22.01;35.16
60646;BME280;46462;32.608;-117.032;2023-03-04T06:02:58;99338.17;;;22.05;34.76
60646;BME280;46462;32.608;-117.032;2023-03-04T06:05:28;99340.12;;;22.03;34.95
60646;BME280;46462;32.608;-117.032;2023-03-04T06:07:59;99344.04;;;22.06;34.89
60646;BME280;46462;32.608;-117.032;2023-03-04T06:10:30;99344.40;;;21.98;35.19
60646;BME280;46462;32.608;-117.032;2023-03-04T06:13:01;99344.93;;;21.94;35.12
60646;BME280;46462;32.608;-117.032;2023-03-04T06:15:32;99345.35;;;21.91;34.95
60646;BME280;46462;32.608;-117.032;2023-03-04T06:18:02;99346.82;;;21.85;35.18
60646;BME280;46462;32.608;-117.032;2023-03-04T06:20:33;99345.12;;;21.81;35.10
60646;BME280;46462;32.608;-117.032;2023-03-04T06:23:04;99346.99;;;21.79;35.17
60646;BME280;46462;32.608;-117.032;2023-03-04T06:25:35;99345.71;;;21.68;35.33
60646;BME280;46462;32.608;-117.032;2023-03-04T06:28:06;99353.06;;;21.77;35.10
60646;BME280;46462;32.608;-117.032;2023-03-04T06:30:36;99359.12;;;21.72;35.28
60646;BME280;46462;32.608;-117.032;2023-03-04T06:33:07;99358.64;;;21.75;35.23
60646;BME280;46462;32.608;-117.032;2023-03-04T06:35:38;99353.41;;;21.74;35.17
60646;BME280;46462;32.608;-117.032;2023-03-04T06:38:10;99355.70;;;21.75;35.06
60646;BME280;46462;32.608;-117.032;2023-03-04T06:40:40;99362.17;;;21.70;35.10
60646;BME280;46462;32.608;-117.032;2023-03-04T06:43:11;99359.15;;;21.56;35.34
60646;BME280;46462;32.608;-117.032;2023-03-04T06:45:41;99356.41;;;21.61;35.24
60646;BME280;46462;32.608;-117.032;2023-03-04T06:48:12;99355.39;;;21.53;35.57
60646;BME280;46462;32.608;-117.032;2023-03-04T06:50:43;99351.72;;;21.48;35.33
60646;BME280;46462;32.608;-117.032;2023-03-04T06:53:14;99346.75;;;21.50;35.53
60646;BME280;46462;32.608;-117.032;2023-03-04T06:55:45;99341.18;;;21.53;35.37
60646;BME280;46462;32.608;-117.032;2023-03-04T06:58:16;99343.07;;;21.51;35.37
60646;BME280;46462;32.608;-117.032;2023-03-04T07:00:46;99344.60;;;21.44;35.36
60646;BME280;46462;32.608;-117.032;2023-03-04T07:03:17;99337.38;;;21.55;35.06
60646;BME280;46462;32.608;-117.032;2023-03-04T07:05:48;99335.31;;;21.48;35.30
60646;BME280;46462;32.608;-117.032;2023-03-04T07:08:19;99336.21;;;21.40;35.31
60646;BME280;46462;32.608;-117.032;2023-03-04T07:10:50;99339.47;;;21.44;35.30
60646;BME280;46462;32.608;-117.032;2023-03-04T07:13:21;99345.39;;;21.31;35.50
60646;BME280;46462;32.608;-117.032;2023-03-04T07:15:52;99351.85;;;21.24;35.71
60646;BME280;46462;32.608;-117.032;2023-03-04T07:18:22;99352.60;;;21.13;35.67
60646;BME280;46462;32.608;-117.032;2023-03-04T07:20:54;99354.16;;;21.19;35.92
60646;BME280;46462;32.608;-117.032;2023-03-04T07:23:24;99359.42;;;21.00;36.20
60646;BME280;46462;32.608;-117.032;2023-03-04T07:25:55;99357.37;;;20.92;36.23
60646;BME280;46462;32.608;-117.032;2023-03-04T07:28:26;99356.52;;;21.15;35.66
60646;BME280;46462;32.608;-117.032;2023-03-04T07:31:06;99358.15;;;21.08;35.57
60646;BME280;46462;32.608;-117.032;2023-03-04T07:33:27;99353.83;;;21.13;35.75
60646;BME280;46462;32.608;-117.032;2023-03-04T07:35:59;99354.52;;;21.21;35.55
60646;BME280;46462;32.608;-117.032;2023-03-04T07:38:29;99351.22;;;21.09;35.65
60646;BME280;46462;32.608;-117.032;2023-03-04T07:41:00;99344.73;;;21.10;35.41
60646;BME280;46462;32.608;-117.032;2023-03-04T07:43:31;99341.33;;;20.94;35.73
60646;BME280;46462;32.608;-117.032;2023-03-04T07:46:02;99339.82;;;21.02;35.72
60646;BME280;46462;32.608;-117.032;2023-03-04T07:48:32;99340.25;;;21.05;35.76
60646;BME280;46462;32.608;-117.032;2023-03-04T07:51:06;99340.20;;;21.12;35.64
60646;BME280;46462;32.608;-117.032;2023-03-04T07:53:35;99339.01;;;21.02;35.87
60646;BME280;46462;32.608;-117.032;2023-03-04T07:56:07;99340.69;;;20.81;36.08
60646;BME280;46462;32.608;-117.032;2023-03-04T07:58:36;99342.60;;;20.86;35.86
60646;BME280;46462;32.608;-117.032;2023-03-04T08:01:10;99343.62;;;20.83;35.99
60646;BME280;46462;32.608;-117.032;2023-03-04T08:03:38;99350.21;;;20.88;35.71
60646;BME280;46462;32.608;-117.032;2023-03-04T08:06:10;99353.85;;;20.88;35.71
60646;BME280;46462;32.608;-117.032;2023-03-04T08:08:39;99353.79;;;20.96;35.39
60646;BME280;46462;32.608;-117.032;2023-03-04T08:11:11;99352.66;;;20.89;35.70
60646;BME280;46462;32.608;-117.032;2023-03-04T08:13:40;99351.51;;;20.96;35.42
60646;BME280;46462;32.608;-117.032;2023-03-04T08:16:13;99352.97;;;20.91;35.69
60646;BME280;46462;32.608;-117.032;2023-03-04T08:18:43;99349.73;;;20.96;35.53
60646;BME280;46462;32.608;-117.032;2023-03-04T08:21:14;99352.26;;;20.87;35.43
60646;BME280;46462;32.608;-117.032;2023-03-04T08:23:44;99356.61;;;20.81;35.71
60646;BME280;46462;32.608;-117.032;2023-03-04T08:26:17;99358.00;;;20.80;35.50
60646;BME280;46462;32.608;-117.032;2023-03-04T08:28:46;99352.72;;;20.85;35.41
60646;BME280;46462;32.608;-117.032;2023-03-04T08:31:17;99357.53;;;20.80;35.63
60646;BME280;46462;32.608;-117.032;2023-03-04T08:33:47;99358.95;;;20.74;35.71
60646;BME280;46462;32.608;-117.032;2023-03-04T08:36:18;99358.62;;;20.68;35.66
60646;BME280;46462;32.608;-117.032;2023-03-04T08:38:49;99357.31;;;20.61;35.70
60646;BME280;46462;32.608;-117.032;2023-03-04T08:41:20;99359.42;;;20.65;35.68
60646;BME280;46462;32.608;-117.032;2023-03-04T08:43:50;99356.75;;;20.58;35.79
60646;BME280;46462;32.608;-117.032;2023-03-04T08:46:22;99358.51;;;20.53;36.19
60646;BME280;46462;32.608;-117.032;2023-03-04T08:48:51;99354.84;;;20.37;36.11
60646;BME280;46462;32.608;-117.032;2023-03-04T08:51:21;99355.27;;;20.55;35.78
60646;BME280;46462;32.608;-117.032;2023-03-04T08:53:52;99353.01;;;20.42;36.09
60646;BME280;46462;32.608;-117.032;2023-03-04T08:56:23;99348.50;;;20.43;35.96
60646;BME280;46462;32.608;-117.032;2023-03-04T08:58:53;99346.16;;;20.37;36.37
60646;BME280;46462;32.608;-117.032;2023-03-04T09:01:24;99341.25;;;20.40;36.15
60646;BME280;46462;32.608;-117.032;2023-03-04T09:03:54;99341.75;;;20.40;35.92
60646;BME280;46462;32.608;-117.032;2023-03-04T09:06:24;99339.64;;;20.35;36.04
60646;BME280;46462;32.608;-117.032;2023-03-04T09:08:54;99340.41;;;20.34;35.81
60646;BME280;46462;32.608;-117.032;2023-03-04T09:11:25;99340.34;;;20.15;36.23
60646;BME280;46462;32.608;-117.032;2023-03-04T09:13:54;99338.82;;;20.14;36.44
60646;BME280;46462;32.608;-117.032;2023-03-04T09:16:24;99343.73;;;20.19;36.25
60646;BME280;46462;32.608;-117.032;2023-03-04T09:18:56;99348.52;;;20.09;36.50
60646;BME280;46462;32.608;-117.032;2023-03-04T09:21:26;99345.45;;;20.11;36.57
60646;BME280;46462;32.608;-117.032;2023-03-04T09:23:57;99346.01;;;20.06;36.26
60646;BME280;46462;32.608;-117.032;2023-03-04T09:26:29;99335.57;;;20.19;35.92
60646;BME280;46462;32.608;-117.032;2023-03-04T09:28:59;99331.97;;;20.08;36.36
60646;BME280;46462;32.608;-117.032;2023-03-04T09:31:29;99329.62;;;19.98;36.36
60646;BME280;46462;32.608;-117.032;2023-03-04T09:34:00;99324.80;;;19.98;36.46
60646;BME280;46462;32.608;-117.032;2023-03-04T09:36:30;99327.84;;;19.91;36.65
60646;BME280;46462;32.608;-117.032;2023-03-04T09:39:02;99331.87;;;19.97;36.09
60646;BME280;46462;32.608;-117.032;2023-03-04T09:41:38;99323.43;;;19.98;35.99
60646;BME280;46462;32.608;-117.032;2023-03-04T09:44:06;99320.56;;;19.87;36.65
60646;BME280;46462;32.608;-117.032;2023-03-04T09:46:36;99315.19;;;19.96;36.45
60646;BME280;46462;32.608;-117.032;2023-03-04T09:49:03;99316.36;;;19.82;36.30
60646;BME280;46462;32.608;-117.032;2023-03-04T09:51:43;99312.35;;;19.75;36.45
60646;BME280;46462;32.608;-117.032;2023-03-04T09:54:07;99313.76;;;19.77;36.32
60646;BME280;46462;32.608;-117.032;2023-03-04T09:56:36;99308.18;;;19.86;36.52
60646;BME280;46462;32.608;-117.032;2023-03-04T09:59:12;99308.52;;;19.85;36.19
60646;BME280;46462;32.608;-117.032;2023-03-04T10:01:37;99308.98;;;19.79;36.17
60646;BME280;46462;32.608;-117.032;2023-03-04T10:04:10;99315.03;;;19.86;36.33
60646;BME280;46462;32.608;-117.032;2023-03-04T10:06:33;99314.09;;;19.73;36.55
60646;BME280;46462;32.608;-117.032;2023-03-04T10:09:05;99304.62;;;19.82;36.53
60646;BME280;46462;32.608;-117.032;2023-03-04T10:11:37;99295.08;;;19.83;36.01
60646;BME280;46462;32.608;-117.032;2023-03-04T10:14:14;99287.32;;;19.82;36.65
60646;BME280;46462;32.608;-117.032;2023-03-04T10:16:38;99281.88;;;19.76;36.37
60646;BME280;46462;32.608;-117.032;2023-03-04T10:21:37;99272.79;;;19.75;36.02
60646;BME280;46462;32.608;-117.032;2023-03-04T10:24:12;99269.89;;;19.71;36.22
60646;BME280;46462;32.608;-117.032;2023-03-04T10:26:33;99272.56;;;19.72;35.99
60646;BME280;46462;32.608;-117.032;2023-03-04T10:29:03;99273.98;;;19.58;36.49
60646;BME280;46462;32.608;-117.032;2023-03-04T10:31:34;99270.72;;;19.57;36.73
60646;BME280;46462;32.608;-117.032;2023-03-04T10:34:04;99265.16;;;19.62;36.56
60646;BME280;46462;32.608;-117.032;2023-03-04T10:36:41;99266.30;;;19.68;36.29
60646;BME280;46462;32.608;-117.032;2023-03-04T10:39:06;99265.29;;;19.41;36.67
60646;BME280;46462;32.608;-117.032;2023-03-04T10:41:33;99263.11;;;19.53;36.57
60646;BME280;46462;32.608;-117.032;2023-03-04T10:44:11;99261.12;;;19.52;36.67
60646;BME280;46462;32.608;-117.032;2023-03-04T10:46:37;99256.82;;;19.46;36.66
60646;BME280;46462;32.608;-117.032;2023-03-04T10:49:03;99251.61;;;19.43;36.48
60646;BME280;46462;32.608;-117.032;2023-03-04T10:51:41;99246.16;;;19.47;36.30
60646;BME280;46462;32.608;-117.032;2023-03-04T10:54:08;99247.89;;;19.34;36.89
60646;BME280;46462;32.608;-117.032;2023-03-04T10:56:37;99248.19;;;19.33;36.79
60646;BME280;46462;32.608;-117.032;2023-03-04T11:01:34;99244.33;;;19.37;36.37
60646;BME280;46462;32.608;-117.032;2023-03-04T11:04:13;99243.92;;;19.35;36.72
60646;BME280;46462;32.608;-117.032;2023-03-04T11:06:39;99249.59;;;19.18;36.54
60646;BME280;46462;32.608;-117.032;2023-03-04T11:09:04;99246.33;;;19.24;36.82
60646;BME280;46462;32.608;-117.032;2023-03-04T11:11:41;99241.54;;;19.21;36.71
60646;BME280;46462;32.608;-117.032;2023-03-04T11:14:11;99242.59;;;19.05;37.23
60646;BME280;46462;32.608;-117.032;2023-03-04T11:16:34;99238.93;;;19.00;37.15
60646;BME280;46462;32.608;-117.032;2023-03-04T11:19:09;99233.69;;;19.10;36.88
60646;BME280;46462;32.608;-117.032;2023-03-04T11:21:41;99237.10;;;19.11;36.89
60646;BME280;46462;32.608;-117.032;2023-03-04T11:24:08;99233.27;;;19.10;37.14
60646;BME280;46462;32.608;-117.032;2023-03-04T11:26:37;99230.12;;;19.08;36.78
60646;BME280;46462;32.608;-117.032;2023-03-04T11:29:10;99234.88;;;19.10;37.04
60646;BME280;46462;32.608;-117.032;2023-03-04T11:31:38;99238.19;;;19.08;36.39
60646;BME280;46462;32.608;-117.032;2023-03-04T11:34:08;99239.55;;;19.00;36.70
60646;BME280;46462;32.608;-117.032;2023-03-04T11:36:39;99235.74;;;19.01;36.71
60646;BME280;46462;32.608;-117.032;2023-03-04T11:39:13;99238.33;;;18.98;36.91
60646;BME280;46462;32.608;-117.032;2023-03-04T11:41:37;99244.90;;;18.95;36.85
60646;BME280;46462;32.608;-117.032;2023-03-04T11:44:06;99250.69;;;19.02;36.83
60646;BME280;46462;32.608;-117.032;2023-03-04T11:46:42;99258.93;;;18.99;37.00
60646;BME280;46462;32.608;-117.032;2023-03-04T11:49:15;99254.07;;;18.89;36.90
60646;BME280;46462;32.608;-117.032;2023-03-04T11:51:39;99248.96;;;18.85;36.93
60646;BME280;46462;32.608;-117.032;2023-03-04T11:54:16;99252.12;;;18.83;36.84
60646;BME280;46462;32.608;-117.032;2023-03-04T11:56:38;99258.95;;;18.79;36.96
60646;BME280;46462;32.608;-117.032;2023-03-04T12:01:41;99255.43;;;18.89;36.61
60646;BME280;46462;32.608;-117.032;2023-03-04T12:04:22;99249.87;;;18.81;37.02
60646;BME280;46462;32.608;-117.032;2023-03-04T12:06:45;99248.87;;;18.80;37.09
60646;BME280;46462;32.608;-117.032;2023-03-04T12:09:14;99262.13;;;18.92;36.65
60646;BME280;46462;32.608;-117.032;2023-03-04T12:11:43;99265.84;;;18.99;36.76
60646;BME280;46462;32.608;-117.032;2023-03-04T12:16:47;99255.72;;;18.80;36.67
60646;BME280;46462;32.608;-117.032;2023-03-04T12:19:16;99262.29;;;18.74;37.13
60646;BME280;46462;32.608;-117.032;2023-03-04T12:26:38;99281.13;;;18.71;36.59
60646;BME280;46462;32.608;-117.032;2023-03-04T12:29:10;99290.16;;;18.80;36.48
60646;BME280;46462;32.608;-117.032;2023-03-04T12:31:38;99290.92;;;18.76;36.49
60646;BME280;46462;32.608;-117.032;2023-03-04T12:36:40;99297.90;;;18.70;36.68
60646;BME280;46462;32.608;-117.032;2023-03-04T12:39:21;99290.04;;;18.85;36.70
60646;BME280;46462;32.608;-117.032;2023-03-04T12:41:44;99284.22;;;18.65;36.82
60646;BME280;46462;32.608;-117.032;2023-03-04T12:44:12;99281.71;;;18.82;36.32
60646;BME280;46462;32.608;-117.032;2023-03-04T12:46:43;99285.56;;;18.70;36.68
60646;BME280;46462;32.608;-117.032;2023-03-04T12:49:19;99293.05;;;18.75;36.62
60646;BME280;46462;32.608;-117.032;2023-03-04T12:51:42;99301.19;;;18.74;36.65
60646;BME280;46462;32.608;-117.032;2023-03-04T12:54:16;99304.40;;;18.60;36.93
60646;BME280;46462;32.608;-117.032;2023-03-04T12:56:40;99299.87;;;18.44;37.15
60646;BME280;46462;32.608;-117.032;2023-03-04T12:59:09;99288.53;;;18.46;36.93
60646;BME280;46462;32.608;-117.032;2023-03-04T13:01:40;99286.26;;;18.46;36.75
60646;BME280;46462;32.608;-117.032;2023-03-04T13:04:11;99287.78;;;18.50;36.68